This is the latest recevied weather packets stored in our database for station/object DL1SEW-6. If no packets are shown the sender has not sent any weather packets the latest 1 day(s).
| Time | Temp. | Humidity | Pressure | Rain* | Wind** | Luminosity | Snow |
|---|---|---|---|---|---|---|---|
| 1777966807 | 15.56° C | 66% | 1008.6 hPa | 0 mm | 0 m/s | 311 W/m² | - |
| 1777965909 | 14.44° C | 73% | 1008.6 hPa | 0 mm | 0 m/s | 577 W/m² | - |
| 1777965007 | 13.89° C | 76% | 1008.6 hPa | 0 mm | 0 m/s | 300 W/m² | - |
| 1777964107 | 13.33° C | 76% | 1008.5 hPa | 0 mm | 0 m/s | 148 W/m² | - |
| 1777963207 | 13.33° C | 77% | 1008.4 hPa | 0 mm | 0 m/s | 184 W/m² | - |
| 1777962306 | 12.22° C | 80% | 1008.4 hPa | 0 mm | 0 m/s | 257 W/m² | - |
| 1777961406 | 11.67° C | 82% | 1008.4 hPa | 0 mm | 0 m/s | 192 W/m² | - |
| 1777960506 | 11.11° C | 82% | 1008.3 hPa | 0 mm | 0 m/s | 163 W/m² | - |
| 1777959606 | 10.56° C | 83% | 1008.4 hPa | 0 mm | 0 m/s | 98 W/m² | - |
| 1777958706 | 10.56° C | 84% | 1008.4 hPa | 0 mm | 0 m/s | 56 W/m² | - |
| 1777957810 | 10.56° C | 84% | 1008.4 hPa | 0 mm | 0 m/s | 52 W/m² | - |
| 1777956912 | 10° C | 84% | 1008.3 hPa | 0 mm | 0 m/s | 44 W/m² | - |
| 1777956010 | 9.44° C | 84% | 1008.4 hPa | 0 mm | 0 m/s | 34 W/m² | - |
| 1777955110 | 9.44° C | 82% | 1008.4 hPa | 0 mm | 0 m/s | 18 W/m² | - |
| 1777954210 | 10° C | 81% | 1008.6 hPa | 0 mm | 0 m/s | 11 W/m² | - |
| 1777953309 | 10° C | 81% | 1008.6 hPa | 0 mm | 0 m/s | 0 W/m² | - |
| 1777952409 | 10.56° C | 80% | 1008.7 hPa | 0 mm | 0 m/s | 0 W/m² | - |
| 1777951511 | 10.56° C | 79% | 1008.8 hPa | 0 mm | 0 m/s | 0 W/m² | - |
| 1777950610 | 11.11° C | 79% | 1008.8 hPa | 0 mm | 0 m/s | 0 W/m² | - |
| 1777949710 | 11.11° C | 79% | 1008.9 hPa | 0 mm | 0 m/s | 0 W/m² | - |
| 1777948809 | 11.11° C | 79% | 1009.1 hPa | 0 mm | 0 m/s | 0 W/m² | - |
| 1777947908 | 11.67° C | 79% | 1009.5 hPa | 0 mm | 0 m/s | 0 W/m² | - |
| 1777947010 | 11.67° C | 78% | 1009.7 hPa | 0 mm | 0 m/s | 0 W/m² | - |
* Rain latest hour (hover to see other rain measurements)
** Current wind speed in m/s (hover to see current wind gust speed)